Antiville, Indiana
Current Conditions -  °F | °C
As of 8:37 PM on Saturday 27 Dec 2014 (Local Time) from KMIE Reporting Station
Light Rain Light Rain  
Wind Chill:   Ceiling: 800
Heat Index:   Visibility: 3mi
Dew Point:   Wind: 17mph
Humidity: 92%   Direction: 300°WNW
Pressure: 30.08"   Gusts: 24mph
Location:  40.4312°N, 85.0058°W
Report Text: KMIE 280137Z 30015G21KT 3SM -RA BR SCT003 BKN008 OVC015 06/04 A3008 RMK AO2 WSHFT 0050 RAE00B20 CIG 008V011 PRESRR P0001 T00560044
Loading
Personal Weather Stations






























Interactive Weather Map New forecast layout! Learn more

10-Day Weather Forecast

Advertisements
Track Severe Weather on mobile